createdAt,value
2018-08-24T00:02:17.380Z,97252.77
2018-08-24T00:04:50.890Z,97245.58
2018-08-24T00:07:23.961Z,97252.33
2018-08-24T00:09:57.265Z,97251.30
2018-08-24T00:12:30.129Z,97255.13
2018-08-24T00:15:03.012Z,97252.33
2018-08-24T00:17:35.632Z,97243.75
2018-08-24T00:20:08.264Z,97241.32
2018-08-24T00:22:41.058Z,97240.52
2018-08-24T00:25:13.999Z,97243.09
2018-08-24T00:27:46.717Z,97240.06
2018-08-24T00:30:23.753Z,97243.25
2018-08-24T00:32:57.045Z,97241.03
2018-08-24T00:35:29.988Z,97234.27
2018-08-24T00:38:02.985Z,97224.86
2018-08-24T00:40:35.841Z,97219.64
2018-08-24T00:43:08.722Z,97218.24
2018-08-24T00:45:41.516Z,97212.89
2018-08-24T00:48:14.374Z,97216.84
2018-08-24T00:50:47.160Z,97213.02
2018-08-24T00:53:20.154Z,97215.02
2018-08-24T00:55:52.981Z,97213.85
2018-08-24T00:58:26.044Z,97216.42
2018-08-24T01:01:03.581Z,97219.01
2018-08-24T01:03:36.289Z,97213.19
2018-08-24T01:06:09.462Z,97219.95
2018-08-24T01:08:45.657Z,97216.35
2018-08-24T01:11:18.438Z,97206.52
2018-08-24T01:13:52.721Z,97210.70
2018-08-24T01:16:30.245Z,97204.68
2018-08-24T01:19:02.947Z,97195.87
2018-08-24T01:21:35.865Z,97197.86
2018-08-24T01:24:08.776Z,97195.44
2018-08-24T01:26:41.621Z,97199.62
2018-08-24T01:29:14.495Z,97192.78
2018-08-24T01:31:47.621Z,97193.61
2018-08-24T01:34:20.324Z,97195.38
2018-08-24T01:36:52.239Z,97193.98
2018-08-24T01:39:25.327Z,97165.46
2018-08-24T01:41:57.908Z,97192.95
2018-08-24T01:44:31.240Z,97200.73
2018-08-24T01:47:04.468Z,97198.30
2018-08-24T01:49:37.244Z,97198.30
2018-08-24T01:52:10.335Z,97191.92
2018-08-24T01:54:43.015Z,97185.53
2018-08-24T01:57:16.212Z,97182.74
2018-08-24T01:59:49.327Z,97185.30
2018-08-24T02:02:21.315Z,97186.70
2018-08-24T02:04:54.820Z,97186.70
2018-08-24T02:07:27.902Z,97189.49
2018-08-24T02:10:00.710Z,97185.30
2018-08-24T02:12:38.445Z,97175.09
2018-08-24T02:15:11.381Z,97175.09
2018-08-24T02:17:49.243Z,97178.06
2018-08-24T02:20:31.239Z,97174.23
2018-08-24T02:23:09.880Z,97173.44
2018-08-24T02:25:43.343Z,97174.23
2018-08-24T02:28:16.549Z,97166.45
2018-08-24T02:30:49.639Z,97162.63
2018-08-24T02:33:22.387Z,97156.22
2018-08-24T02:35:56.896Z,97151.47
2018-08-24T02:38:30.239Z,97149.84
2018-08-24T02:41:03.391Z,97145.45
2018-08-24T02:43:36.224Z,97152.43
2018-08-24T02:46:09.232Z,97143.82
2018-08-24T02:48:42.196Z,97148.61
2018-08-24T02:51:15.233Z,97144.42
2018-08-24T02:53:47.957Z,97145.02
2018-08-24T02:56:21.703Z,97145.02
2018-08-24T02:58:55.444Z,97146.98
2018-08-24T03:01:28.416Z,97140.34
2018-08-24T03:04:01.467Z,97147.58
2018-08-24T03:06:33.996Z,97142.00
2018-08-24T03:09:10.678Z,97138.74
2018-08-24T03:11:43.510Z,97137.80
2018-08-24T03:14:16.461Z,97132.56
2018-08-24T03:16:54.870Z,97130.73
2018-08-24T03:19:28.058Z,97129.94
2018-08-24T03:22:01.239Z,97136.48
2018-08-24T03:24:34.476Z,97126.71
2018-08-24T03:27:07.354Z,97124.48
2018-08-24T03:29:40.322Z,97125.08
2018-08-24T03:32:12.082Z,97126.48
2018-08-24T03:34:45.370Z,97127.64
2018-08-24T03:37:18.420Z,97125.25
2018-08-24T03:39:51.540Z,97121.63
2018-08-24T03:42:24.330Z,97119.44
2018-08-24T03:44:57.539Z,97123.62
2018-08-24T03:47:29.929Z,97118.64
2018-08-24T03:50:02.640Z,97125.81
2018-08-24T03:52:35.434Z,97116.41
2018-08-24T03:55:08.553Z,97112.23
2018-08-24T03:57:41.406Z,97120.59
2018-08-24T04:00:19.752Z,97116.81
2018-08-24T04:02:53.661Z,97121.99
2018-08-24T04:05:27.702Z,97119.37
2018-08-24T04:08:01.228Z,97121.80
2018-08-24T04:10:37.522Z,97115.78
2018-08-24T04:13:11.824Z,97117.17
2018-08-24T04:15:45.236Z,97117.77
2018-08-24T04:18:18.692Z,97118.57
2018-08-24T04:20:52.227Z,97111.96
2018-08-24T04:23:25.340Z,97111.16
2018-08-24T04:25:59.424Z,97113.95
2018-08-24T04:28:33.031Z,97122.89
2018-08-24T04:31:06.241Z,97117.31
2018-08-24T04:33:38.889Z,97120.09
2018-08-24T04:36:11.835Z,97118.50
2018-08-24T04:38:44.526Z,97115.48
2018-08-24T04:41:19.483Z,97118.88
2018-08-24T04:43:52.448Z,97116.45
2018-08-24T04:46:25.257Z,97126.45
2018-08-24T04:48:58.524Z,97131.59
2018-08-24T04:51:31.642Z,97134.59
2018-08-24T04:54:06.591Z,97131.20
2018-08-24T04:56:39.287Z,97141.56
2018-08-24T04:59:12.033Z,97135.98
2018-08-24T05:01:45.001Z,97138.57
2018-08-24T05:04:17.968Z,97137.17
2018-08-24T05:06:50.854Z,97139.14
2018-08-24T05:09:23.439Z,97143.76
2018-08-24T05:11:56.832Z,97148.34
2018-08-24T05:14:29.579Z,97146.55
2018-08-24T05:17:02.399Z,97143.19
2018-08-24T05:19:34.956Z,97140.41
2018-08-24T05:22:07.941Z,97143.19
2018-08-24T05:24:40.673Z,97143.98
2018-08-24T05:27:13.332Z,97147.81
2018-08-24T05:29:46.214Z,97137.81
2018-08-24T05:32:19.320Z,97139.44
2018-08-24T05:34:52.332Z,97150.60
2018-08-24T05:37:25.465Z,97146.42
2018-08-24T05:39:58.576Z,97146.42
2018-08-24T05:42:31.483Z,97144.22
2018-08-24T05:45:04.374Z,97148.84
2018-08-24T05:50:54.178Z,97150.09
2018-08-24T05:53:27.044Z,97149.52
2018-08-24T05:56:00.480Z,97148.94
2018-08-24T05:58:33.034Z,97145.44
2018-08-24T06:01:05.931Z,97143.66
2018-08-24T06:03:38.582Z,97149.00
2018-08-24T06:06:11.299Z,97159.00
2018-08-24T06:08:44.879Z,97154.22
2018-08-24T06:11:17.573Z,97147.92
2018-08-24T06:13:50.445Z,97153.30
2018-08-24T06:16:23.334Z,97149.11
2018-08-24T06:18:56.677Z,97151.58
2018-08-24T06:21:29.634Z,97156.20
2018-08-24T06:24:02.266Z,97151.02
2018-08-24T06:26:35.250Z,97157.98
2018-08-24T06:29:13.617Z,97157.39
2018-08-24T06:31:46.496Z,97157.59
2018-08-24T06:34:19.483Z,97100.04
2018-08-24T06:36:52.422Z,97165.32
2018-08-24T06:39:25.224Z,97160.38
2018-08-24T06:41:58.609Z,97156.66
2018-08-24T06:44:31.069Z,97160.85
2018-08-24T06:47:03.889Z,97166.80
2018-08-24T06:49:36.889Z,97170.15
2018-08-24T06:52:09.862Z,97172.01
2018-08-24T06:54:44.569Z,97171.84
2018-08-24T06:57:17.562Z,97173.81
2018-08-24T06:59:50.759Z,97173.35
2018-08-24T07:02:24.849Z,97170.69
2018-08-24T07:04:59.427Z,97171.13
2018-08-24T07:07:36.429Z,97171.36
2018-08-24T07:10:09.408Z,97175.86
2018-08-24T07:12:42.376Z,97174.34
2018-08-24T07:15:18.224Z,97173.37
